createdAt,value
2022-11-16T00:00:33.298Z,10.28
2022-11-16T00:05:36.437Z,10.39
2022-11-16T00:10:35.517Z,10.52
2022-11-16T00:15:36.759Z,10.66
2022-11-16T00:20:37.856Z,10.77
2022-11-16T00:25:39.942Z,10.78
2022-11-16T00:30:39.036Z,10.78
2022-11-16T00:35:42.149Z,10.83
2022-11-16T00:40:41.267Z,10.88
2022-11-16T00:45:42.381Z,10.84
2022-11-16T00:50:44.487Z,10.91
2022-11-16T00:55:43.621Z,10.86
2022-11-16T01:00:45.792Z,10.88
2022-11-16T01:05:44.964Z,10.86
2022-11-16T01:10:46.248Z,10.78
2022-11-16T01:15:48.378Z,10.83
2022-11-16T01:20:48.497Z,10.76
2022-11-16T01:25:48.648Z,10.71
2022-11-16T01:30:47.778Z,10.63
2022-11-16T01:35:48.938Z,10.32
2022-11-16T01:40:50.059Z,10.14
2022-11-16T01:45:51.156Z,9.99
2022-11-16T01:50:52.292Z,10.00
2022-11-16T01:55:53.423Z,10.03
2022-11-16T02:00:55.572Z,10.07
2022-11-16T02:05:53.715Z,9.81
2022-11-16T02:10:54.809Z,9.64
2022-11-16T02:15:56.989Z,9.58
2022-11-16T02:20:56.080Z,9.67
2022-11-16T02:25:57.294Z,9.68
2022-11-16T02:30:58.491Z,9.58
2022-11-16T02:36:00.583Z,9.63
2022-11-16T02:40:59.679Z,9.71
2022-11-16T02:46:01.807Z,9.81
2022-11-16T02:51:00.910Z,9.64
2022-11-16T02:56:03.005Z,9.79
2022-11-16T03:01:03.122Z,9.89
2022-11-16T03:06:02.244Z,9.94
2022-11-16T03:11:03.339Z,10.00
2022-11-16T03:16:05.435Z,10.09
2022-11-16T03:21:04.583Z,10.14
2022-11-16T03:26:05.674Z,10.06
2022-11-16T03:31:05.765Z,10.06
2022-11-16T03:36:06.866Z,9.96
2022-11-16T03:41:08.952Z,9.86
2022-11-16T03:46:08.165Z,9.88
2022-11-16T03:51:09.250Z,9.83
2022-11-16T03:56:10.383Z,9.63
2022-11-16T04:01:12.571Z,9.56
2022-11-16T04:06:11.663Z,9.58
2022-11-16T04:11:12.778Z,9.66
2022-11-16T04:16:13.869Z,9.52
2022-11-16T04:21:14.959Z,9.56
2022-11-16T04:26:16.044Z,9.39
2022-11-16T04:31:18.131Z,9.42
2022-11-16T04:36:20.558Z,9.31
2022-11-16T04:41:17.965Z,9.38
2022-11-16T04:46:19.076Z,9.40
2022-11-16T04:51:20.194Z,9.42
2022-11-16T04:56:21.288Z,9.40
2022-11-16T05:01:23.455Z,9.49
2022-11-16T05:06:22.578Z,9.53
2022-11-16T05:11:23.721Z,9.43
2022-11-16T05:16:24.875Z,9.45
2022-11-16T05:21:26.023Z,9.46
2022-11-16T05:26:27.146Z,9.57
2022-11-16T05:31:29.261Z,9.49
2022-11-16T05:36:28.475Z,9.43
2022-11-16T05:41:29.599Z,9.48
2022-11-16T05:46:30.745Z,9.50
2022-11-16T05:51:32.916Z,9.43
2022-11-16T05:56:32.120Z,9.45
2022-11-16T06:01:34.380Z,9.30
2022-11-16T06:06:34.470Z,9.38
2022-11-16T06:11:35.983Z,9.31
2022-11-16T06:16:34.435Z,9.28
2022-11-16T06:21:34.576Z,9.31
2022-11-16T06:26:34.648Z,9.28
2022-11-16T06:31:34.746Z,9.32
2022-11-16T06:36:33.822Z,9.42
2022-11-16T06:41:41.230Z,9.32
2022-11-16T06:46:34.606Z,9.32
2022-11-16T06:51:35.815Z,9.34
2022-11-16T06:56:37.941Z,9.46
2022-11-16T07:01:37.116Z,9.53
2022-11-16T07:06:38.237Z,9.46
2022-11-16T07:11:39.463Z,9.49
2022-11-16T07:16:41.551Z,9.67
2022-11-16T07:21:41.661Z,9.73
2022-11-16T07:26:40.784Z,9.78
2022-11-16T07:31:42.870Z,9.63
2022-11-16T07:36:42.979Z,9.73
2022-11-16T07:41:42.106Z,9.97
2022-11-16T07:46:47.574Z,10.18
2022-11-16T07:51:45.383Z,10.30
2022-11-16T07:56:44.505Z,10.32
2022-11-16T08:01:45.678Z,10.17
2022-11-16T08:06:46.899Z,10.18
2022-11-16T08:11:48.972Z,10.36
2022-11-16T08:16:48.091Z,10.76
2022-11-16T08:21:49.292Z,10.70
2022-11-16T08:26:51.376Z,11.13
2022-11-16T08:31:50.530Z,11.06
2022-11-16T08:36:51.636Z,11.38
2022-11-16T08:41:52.755Z,11.52
2022-11-16T08:46:54.862Z,11.77
2022-11-16T08:51:55.013Z,11.52
2022-11-16T08:56:54.116Z,11.50
2022-11-16T09:01:56.279Z,11.38
2022-11-16T09:06:57.435Z,10.99
2022-11-16T09:11:56.599Z,11.07
2022-11-16T09:16:57.714Z,10.96
2022-11-16T09:21:58.813Z,11.10
2022-11-16T09:27:00.930Z,11.14
2022-11-16T09:32:00.115Z,11.20
2022-11-16T09:37:01.273Z,11.62
2022-11-16T09:42:02.379Z,11.29
2022-11-16T09:47:04.540Z,11.67
2022-11-16T09:52:03.693Z,11.94
2022-11-16T09:57:10.972Z,12.15
2022-11-16T10:02:06.839Z,12.30
2022-11-16T10:07:06.010Z,12.63
2022-11-16T10:12:07.144Z,12.81
2022-11-16T10:17:09.270Z,12.95
2022-11-16T10:22:09.432Z,12.88
2022-11-16T10:27:09.572Z,13.03
2022-11-16T10:32:08.791Z,12.92
2022-11-16T10:37:09.952Z,13.03
2022-11-16T10:42:12.273Z,13.47
2022-11-16T10:47:11.438Z,13.62
2022-11-16T10:52:13.650Z,13.99
2022-11-16T10:57:12.972Z,14.78
2022-11-16T11:02:14.226Z,14.65
2022-11-16T11:07:16.495Z,15.35
2022-11-16T11:12:16.658Z,15.12
2022-11-16T11:17:15.832Z,14.99
2022-11-16T11:22:16.988Z,15.26
2022-11-16T11:27:18.229Z,16.01
2022-11-16T11:32:23.872Z,15.64
2022-11-16T11:37:19.353Z,15.89
2022-11-16T11:42:20.443Z,15.79
2022-11-16T11:47:56.209Z,16.58
2022-11-16T11:52:22.486Z,16.44
2022-11-16T11:57:23.613Z,15.54
2022-11-16T12:02:24.792Z,14.72
2022-11-16T12:07:26.115Z,14.35
2022-11-16T12:12:28.249Z,14.29
2022-11-16T12:17:27.404Z,14.28
2022-11-16T12:22:28.783Z,14.25
2022-11-16T12:27:29.906Z,14.27
2022-11-16T12:32:32.014Z,14.37
2022-11-16T12:37:31.179Z,14.62
2022-11-16T12:42:32.420Z,14.61
2022-11-16T12:47:33.521Z,14.43
2022-11-16T12:52:34.619Z,14.69
2022-11-16T12:57:35.727Z,15.26
2022-11-16T13:02:36.808Z,15.01
2022-11-16T13:07:38.047Z,15.26
2022-11-16T13:12:39.203Z,14.83
2022-11-16T13:17:40.366Z,14.69
2022-11-16T13:22:41.472Z,14.65
2022-11-16T13:27:43.583Z,14.71
2022-11-16T13:32:42.828Z,15.12
2022-11-16T13:37:44.928Z,15.19
2022-11-16T13:42:44.051Z,14.50
2022-11-16T13:47:44.160Z,14.14
2022-11-16T13:53:36.357Z,14.07
2022-11-16T13:57:45.373Z,13.98
2022-11-16T14:02:46.558Z,14.06
2022-11-16T14:07:47.669Z,13.92
2022-11-16T14:12:48.788Z,13.91
2022-11-16T14:17:50.864Z,13.87
2022-11-16T14:22:50.025Z,13.70
2022-11-16T14:27:51.153Z,13.36
2022-11-16T14:32:52.288Z,13.44
2022-11-16T14:37:53.448Z,13.49
2022-11-16T14:43:15.553Z,13.55
2022-11-16T14:47:54.495Z,13.46
2022-11-16T14:52:55.609Z,13.62
2022-11-16T14:57:56.717Z,13.65
2022-11-16T15:03:02.611Z,13.51
2022-11-16T15:07:58.205Z,13.25
2022-11-16T15:12:59.320Z,13.06
2022-11-16T15:18:00.427Z,12.54
2022-11-16T15:23:01.532Z,12.37
2022-11-16T15:28:02.638Z,12.11
2022-11-16T15:33:03.788Z,11.89
2022-11-16T15:38:04.886Z,11.61
2022-11-16T15:43:06.007Z,11.27
2022-11-16T15:48:09.080Z,11.27
2022-11-16T15:53:08.225Z,10.83
2022-11-16T15:58:09.309Z,10.59
2022-11-16T16:03:10.465Z,10.52
2022-11-16T16:08:11.544Z,10.37
2022-11-16T16:13:13.655Z,10.24
2022-11-16T16:18:12.796Z,10.04
2022-11-16T16:23:12.948Z,9.70
2022-11-16T16:28:13.088Z,9.64
2022-11-16T16:33:15.207Z,9.93
2022-11-16T16:38:14.988Z,10.37
2022-11-16T16:43:15.133Z,10.81
2022-11-16T16:48:14.236Z,11.03
2022-11-16T16:53:16.467Z,11.16
2022-11-16T16:58:15.942Z,11.24
2022-11-16T17:03:18.278Z,11.14
2022-11-16T17:08:19.723Z,11.01
2022-11-16T17:13:18.911Z,10.78
2022-11-16T17:18:21.201Z,10.56
2022-11-16T17:23:21.514Z,10.36
2022-11-16T17:28:20.784Z,10.04
2022-11-16T17:33:22.007Z,9.85
2022-11-16T17:38:23.349Z,9.79
2022-11-16T17:43:25.618Z,9.56
2022-11-16T17:48:25.414Z,9.35
2022-11-16T17:53:32.294Z,9.02
2022-11-16T17:58:26.787Z,9.06
2022-11-16T18:03:28.403Z,9.06
2022-11-16T18:08:28.081Z,9.01
2022-11-16T18:13:27.474Z,9.13
2022-11-16T18:18:28.855Z,9.23
2022-11-16T18:23:31.760Z,9.21
2022-11-16T18:28:32.337Z,9.18
2022-11-16T18:33:32.854Z,9.04
2022-11-16T18:38:33.524Z,9.04
2022-11-16T18:43:33.325Z,9.04
2022-11-16T18:48:33.387Z,9.05
2022-11-16T18:53:36.025Z,8.97
2022-11-16T18:58:51.859Z,9.05
2022-11-16T19:03:37.889Z,9.06
2022-11-16T19:08:37.364Z,9.06
2022-11-16T19:13:37.656Z,8.91
2022-11-16T19:18:37.874Z,8.86
2022-11-16T19:23:37.647Z,8.76
2022-11-16T19:28:36.986Z,8.76
2022-11-16T19:33:38.768Z,8.90
2022-11-16T19:38:39.337Z,9.04
2022-11-16T19:43:38.899Z,8.96
2022-11-16T19:48:38.362Z,8.79
2022-11-16T19:53:41.398Z,8.78
2022-11-16T19:58:41.900Z,8.65
2022-11-16T20:03:41.279Z,8.65
2022-11-16T20:08:42.910Z,8.63
2022-11-16T20:13:42.154Z,8.58
2022-11-16T20:18:43.515Z,8.45
2022-11-16T20:23:44.904Z,8.40
2022-11-16T20:28:46.310Z,8.29
2022-11-16T20:33:47.807Z,8.15
2022-11-16T20:38:47.452Z,8.07
2022-11-16T20:43:48.852Z,8.14
2022-11-16T20:48:50.061Z,8.20
2022-11-16T20:53:52.027Z,8.29
2022-11-16T20:58:51.341Z,8.53
2022-11-16T21:03:54.476Z,8.73
2022-11-16T21:08:54.620Z,8.76
2022-11-16T21:13:53.809Z,8.66
2022-11-16T21:18:55.042Z,8.55
2022-11-16T21:23:56.160Z,8.63
2022-11-16T21:28:57.282Z,8.65
2022-11-16T21:33:58.437Z,8.58
2022-11-16T21:38:59.617Z,8.57
2022-11-16T21:44:00.717Z,8.73
2022-11-16T21:49:01.846Z,8.76
2022-11-16T21:54:04.980Z,8.66
2022-11-16T21:59:04.136Z,8.63
2022-11-16T22:04:09.196Z,8.66
2022-11-16T22:09:06.398Z,8.76
2022-11-16T22:14:08.529Z,8.87
2022-11-16T22:19:07.708Z,9.04
2022-11-16T22:24:08.848Z,9.16
2022-11-16T22:29:12.122Z,9.27
2022-11-16T22:34:11.342Z,9.35
2022-11-16T22:39:14.459Z,9.34
2022-11-16T22:44:13.617Z,9.32
2022-11-16T22:49:14.779Z,9.34
2022-11-16T22:54:15.881Z,9.43
2022-11-16T22:59:17.006Z,9.40
2022-11-16T23:04:18.086Z,9.45
2022-11-16T23:09:19.204Z,9.56
2022-11-16T23:14:20.389Z,9.75
2022-11-16T23:19:21.486Z,9.79
2022-11-16T23:24:22.577Z,9.82
2022-11-16T23:29:23.758Z,9.99
2022-11-16T23:34:25.868Z,9.99
2022-11-16T23:39:24.971Z,9.96
2022-11-16T23:44:26.156Z,9.91
2022-11-16T23:49:27.310Z,9.89
2022-11-16T23:54:28.477Z,9.78
2022-11-16T23:59:29.649Z,9.64
